Волоконовка

СКИДКИ НА СМАРТФОНЫ!

Карта отелей и гостиниц, располагающихся рядом с аэропортом Волоконовка :

Волоконовка Белгородская область 50° 28' 3.0612" N, 37° 54' 44.9388" E
Волоконовка Белгородская область 50° 28' 3.0612" N, 37° 54' 44.9388" E
Код аэродрома ИКАО
ZE33
Код аэродрома RU
ЗЕ33
Координаты
N50.46752° E037.91248°
Превышение над уровнем моря
Основная полоса
10/28
Курс магнитный
101,8/281,8
Длина основной ВПП
430
Ширина основной ВПП
18
Покрытие основной ВПП
Твёрдое
Освещение ВПП
Нет
Тип: 
Аэродром
Класс аэродрома: 
Принадлежность: 
ГА
Статус: 
Недействующий
Сайт: 
E-mail аэродрома: 
Страна: 
Россия
Регион: 
Белгородская область
Город: 
Дополнительная информация: 
Площадка АХР.

Скидки на навигаторы!

Найти трансфер

С помощью этой формы Вы можете найти трансфер из аэропорта Волоконовка в город, аэропорт или вокзал:

Погода в аэропортах:

Авиационная погода в Кишинёве

Регион: 
Погода METAR: 
LUKK 072100Z 25005KT 1300 0550S R08/P2000N BR PRFG FEW005 OVC082 03/03 Q1015 TEMPO 0300 FG VV002
Время наблюдения
2022-12-07T21:00:00Z
Температура C
3.0
Точка росы
3.0
Направление ветра
250
Скорость ветра (узлы)
5
Метео видимость
0.81
Облачность
FEW
OVC
Нижняя граница облачности (футы)
500
8200
Явления погоды
PRFG BR
Условия полета
LIFR
FEW – незначительная облачность; OVC – сплошная облачность;
PRFG - туман просвечивающий; BR – дымка (видимость от 1 до 9 км);

Авиационная погода в Богашево

Регион: 
Погода METAR: 
UNTT 072100Z 21006MPS 7000 -SHSN SCT032CB M19/M22 Q1035 R21/////// NOSIG RMK QFE761
Время наблюдения
2022-12-07T21:00:00Z
Температура C
-19.0
Точка росы
-22.0
Направление ветра
210
Скорость ветра (узлы)
12
Метео видимость
4.35
Облачность
SCT
Нижняя граница облачности (футы)
3200
Явления погоды
-SHSN
Условия полета
MVFR
Аэропорт подробнее: 
SCT – разбросанная отдельная облачность;
-SHSN - слабый ливневой снег;

Авиационная погода в Савонлинна

Регион: 
Погода METAR: 
EFSA 072050Z AUTO 13008KT 3500 -SN FEW008 BKN022 OVC027 M06/M07 Q1005
Время наблюдения
2022-12-07T20:50:00Z
Температура C
-6.0
Точка росы
-7.0
Направление ветра
130
Скорость ветра (узлы)
8
Метео видимость
2.17
Облачность
FEW
BKN
OVC
Нижняя граница облачности (футы)
800
2200
2700
Явления погоды
-SN
Условия полета
IFR
FEW – незначительная облачность; BKN – значительная (рассеянная, разорванная) облачность; OVC – сплошная облачность;
-SN – слабый снег;

Авиационная погода в Череповце

Регион: 
Погода METAR: 
ULWC 071800Z 15004G09MPS 9999 DRSN NSC M09/M14 Q1020 R21/450149 NOSIG RMK QFE755/1007
Время наблюдения
2022-12-07T18:00:00Z
Температура C
-9.0
Точка росы
-14.0
Направление ветра
150
Скорость ветра (узлы)
8
Метео видимость
6.21
Облачность
CLR
Нижняя граница облачности (футы)
Явления погоды
DRSN
Условия полета
VFR
Аэропорт подробнее: 
CLR — нет облаков ниже 3000 м
DRSN – снежный позёмок;